sensor_id;sensor_type;location;lat;lon;timestamp;P1;durP1;ratioP1;P2;durP2;ratioP2
73107;SDS011;61559;50.476;15.588;2024-03-02T00:00:22;35.80;;;18.70;;
73107;SDS011;61559;50.476;15.588;2024-03-02T00:03:14;42.10;;;18.20;;
73107;SDS011;61559;50.476;15.588;2024-03-02T00:05:50;43.30;;;18.70;;
73107;SDS011;61559;50.476;15.588;2024-03-02T00:08:23;37.70;;;18.30;;
73107;SDS011;61559;50.476;15.588;2024-03-02T00:10:58;35.80;;;19.20;;
73107;SDS011;61559;50.476;15.588;2024-03-02T00:13:31;39.90;;;20.20;;
73107;SDS011;61559;50.476;15.588;2024-03-02T00:16:04;36.90;;;19.70;;
73107;SDS011;61559;50.476;15.588;2024-03-02T00:18:35;42.60;;;20.40;;
73107;SDS011;61559;50.476;15.588;2024-03-02T00:21:07;40.40;;;20.40;;
73107;SDS011;61559;50.476;15.588;2024-03-02T00:23:39;41.10;;;20.40;;
73107;SDS011;61559;50.476;15.588;2024-03-02T00:26:10;40.60;;;20.60;;
73107;SDS011;61559;50.476;15.588;2024-03-02T00:28:42;42.70;;;20.00;;
73107;SDS011;61559;50.476;15.588;2024-03-02T00:31:14;39.20;;;20.20;;
73107;SDS011;61559;50.476;15.588;2024-03-02T00:33:49;41.80;;;19.80;;
73107;SDS011;61559;50.476;15.588;2024-03-02T00:36:24;43.80;;;21.20;;
73107;SDS011;61559;50.476;15.588;2024-03-02T00:38:56;45.40;;;20.50;;
73107;SDS011;61559;50.476;15.588;2024-03-02T00:41:29;41.80;;;20.60;;
73107;SDS011;61559;50.476;15.588;2024-03-02T00:44:01;41.20;;;21.50;;
73107;SDS011;61559;50.476;15.588;2024-03-02T00:46:34;38.60;;;20.30;;
73107;SDS011;61559;50.476;15.588;2024-03-02T00:49:11;47.40;;;23.60;;
73107;SDS011;61559;50.476;15.588;2024-03-02T00:51:49;49.40;;;24.00;;
73107;SDS011;61559;50.476;15.588;2024-03-02T00:54:21;56.10;;;23.80;;
73107;SDS011;61559;50.476;15.588;2024-03-02T00:56:54;44.20;;;20.80;;
73107;SDS011;61559;50.476;15.588;2024-03-02T00:59:28;45.10;;;20.90;;
73107;SDS011;61559;50.476;15.588;2024-03-02T01:02:00;46.50;;;22.00;;
73107;SDS011;61559;50.476;15.588;2024-03-02T01:04:31;48.20;;;23.70;;
73107;SDS011;61559;50.476;15.588;2024-03-02T01:07:02;46.70;;;23.30;;
73107;SDS011;61559;50.476;15.588;2024-03-02T01:09:34;46.70;;;23.00;;
73107;SDS011;61559;50.476;15.588;2024-03-02T01:12:05;50.20;;;22.80;;
73107;SDS011;61559;50.476;15.588;2024-03-02T01:14:37;49.00;;;24.10;;
73107;SDS011;61559;50.476;15.588;2024-03-02T01:17:08;50.90;;;24.40;;
73107;SDS011;61559;50.476;15.588;2024-03-02T01:19:40;49.70;;;23.70;;
73107;SDS011;61559;50.476;15.588;2024-03-02T01:22:12;55.10;;;24.50;;
73107;SDS011;61559;50.476;15.588;2024-03-02T01:24:43;49.90;;;22.30;;
73107;SDS011;61559;50.476;15.588;2024-03-02T01:27:15;52.60;;;23.70;;
73107;SDS011;61559;50.476;15.588;2024-03-02T01:29:47;51.00;;;24.10;;
73107;SDS011;61559;50.476;15.588;2024-03-02T01:32:18;48.80;;;24.00;;
73107;SDS011;61559;50.476;15.588;2024-03-02T01:37:19;52.70;;;23.10;;
73107;SDS011;61559;50.476;15.588;2024-03-02T01:39:50;48.00;;;22.80;;
73107;SDS011;61559;50.476;15.588;2024-03-02T01:42:21;49.00;;;23.00;;
73107;SDS011;61559;50.476;15.588;2024-03-02T01:44:52;49.60;;;24.30;;
73107;SDS011;61559;50.476;15.588;2024-03-02T01:47:23;46.80;;;22.80;;
73107;SDS011;61559;50.476;15.588;2024-03-02T01:49:55;53.60;;;25.60;;
73107;SDS011;61559;50.476;15.588;2024-03-02T01:52:26;49.50;;;23.20;;
73107;SDS011;61559;50.476;15.588;2024-03-02T01:54:58;51.50;;;23.80;;
73107;SDS011;61559;50.476;15.588;2024-03-02T01:57:31;54.30;;;24.00;;
73107;SDS011;61559;50.476;15.588;2024-03-02T02:00:05;46.90;;;22.30;;
73107;SDS011;61559;50.476;15.588;2024-03-02T02:02:39;46.30;;;22.60;;
73107;SDS011;61559;50.476;15.588;2024-03-02T02:05:11;55.00;;;24.10;;
73107;SDS011;61559;50.476;15.588;2024-03-02T02:07:42;45.10;;;21.80;;
73107;SDS011;61559;50.476;15.588;2024-03-02T02:10:13;46.60;;;24.10;;
73107;SDS011;61559;50.476;15.588;2024-03-02T02:12:45;52.30;;;23.70;;
73107;SDS011;61559;50.476;15.588;2024-03-02T02:15:23;47.50;;;22.60;;
73107;SDS011;61559;50.476;15.588;2024-03-02T02:17:58;46.90;;;22.10;;
73107;SDS011;61559;50.476;15.588;2024-03-02T02:20:29;46.30;;;23.50;;
73107;SDS011;61559;50.476;15.588;2024-03-02T02:23:01;51.50;;;24.90;;
73107;SDS011;61559;50.476;15.588;2024-03-02T02:25:34;49.90;;;24.30;;
73107;SDS011;61559;50.476;15.588;2024-03-02T02:28:06;46.40;;;22.30;;
73107;SDS011;61559;50.476;15.588;2024-03-02T02:30:37;55.60;;;24.70;;
73107;SDS011;61559;50.476;15.588;2024-03-02T02:33:09;47.60;;;25.60;;
73107;SDS011;61559;50.476;15.588;2024-03-02T02:35:40;51.20;;;23.40;;
73107;SDS011;61559;50.476;15.588;2024-03-02T02:38:11;49.20;;;22.20;;
73107;SDS011;61559;50.476;15.588;2024-03-02T02:43:11;45.90;;;21.50;;
73107;SDS011;61559;50.476;15.588;2024-03-02T02:45:42;45.10;;;21.90;;
73107;SDS011;61559;50.476;15.588;2024-03-02T02:48:14;48.00;;;22.60;;
73107;SDS011;61559;50.476;15.588;2024-03-02T02:50:45;50.30;;;22.60;;
73107;SDS011;61559;50.476;15.588;2024-03-02T02:53:16;46.20;;;21.80;;
73107;SDS011;61559;50.476;15.588;2024-03-02T02:55:48;48.30;;;22.60;;
73107;SDS011;61559;50.476;15.588;2024-03-02T02:58:19;52.40;;;22.40;;
73107;SDS011;61559;50.476;15.588;2024-03-02T03:00:50;48.40;;;23.80;;
73107;SDS011;61559;50.476;15.588;2024-03-02T03:03:25;46.70;;;20.40;;
73107;SDS011;61559;50.476;15.588;2024-03-02T03:05:56;46.20;;;22.60;;
73107;SDS011;61559;50.476;15.588;2024-03-02T03:10:57;46.40;;;20.60;;
73107;SDS011;61559;50.476;15.588;2024-03-02T03:13:43;45.30;;;21.30;;
73107;SDS011;61559;50.476;15.588;2024-03-02T03:16:23;44.80;;;20.80;;
73107;SDS011;61559;50.476;15.588;2024-03-02T03:18:55;51.40;;;23.00;;
73107;SDS011;61559;50.476;15.588;2024-03-02T03:21:26;44.70;;;20.60;;
73107;SDS011;61559;50.476;15.588;2024-03-02T03:23:57;47.90;;;22.00;;
73107;SDS011;61559;50.476;15.588;2024-03-02T03:26:29;46.60;;;21.60;;
73107;SDS011;61559;50.476;15.588;2024-03-02T03:29:00;50.10;;;22.60;;
73107;SDS011;61559;50.476;15.588;2024-03-02T03:31:31;47.50;;;21.90;;
73107;SDS011;61559;50.476;15.588;2024-03-02T03:36:32;44.20;;;20.00;;
73107;SDS011;61559;50.476;15.588;2024-03-02T03:39:03;42.40;;;19.50;;
73107;SDS011;61559;50.476;15.588;2024-03-02T03:41:34;51.50;;;23.50;;
73107;SDS011;61559;50.476;15.588;2024-03-02T03:44:06;50.30;;;21.30;;
73107;SDS011;61559;50.476;15.588;2024-03-02T03:46:37;48.20;;;22.70;;
73107;SDS011;61559;50.476;15.588;2024-03-02T03:49:08;46.40;;;21.60;;
73107;SDS011;61559;50.476;15.588;2024-03-02T03:51:40;45.60;;;20.80;;
73107;SDS011;61559;50.476;15.588;2024-03-02T03:54:11;40.20;;;19.40;;
73107;SDS011;61559;50.476;15.588;2024-03-02T03:56:42;48.60;;;22.00;;
73107;SDS011;61559;50.476;15.588;2024-03-02T03:59:14;43.60;;;19.60;;
73107;SDS011;61559;50.476;15.588;2024-03-02T04:01:45;49.80;;;21.40;;
73107;SDS011;61559;50.476;15.588;2024-03-02T04:04:16;49.00;;;21.60;;
73107;SDS011;61559;50.476;15.588;2024-03-02T04:11:47;43.80;;;19.50;;
73107;SDS011;61559;50.476;15.588;2024-03-02T04:14:18;45.90;;;20.50;;
73107;SDS011;61559;50.476;15.588;2024-03-02T04:16:49;44.20;;;20.60;;
73107;SDS011;61559;50.476;15.588;2024-03-02T04:19:20;45.00;;;21.00;;
73107;SDS011;61559;50.476;15.588;2024-03-02T04:21:52;47.40;;;22.60;;
73107;SDS011;61559;50.476;15.588;2024-03-02T04:24:23;42.80;;;20.80;;
73107;SDS011;61559;50.476;15.588;2024-03-02T04:26:54;46.60;;;20.30;;
73107;SDS011;61559;50.476;15.588;2024-03-02T04:29:26;51.40;;;21.20;;
73107;SDS011;61559;50.476;15.588;2024-03-02T04:31:57;41.70;;;18.80;;
73107;SDS011;61559;50.476;15.588;2024-03-02T04:34:28;47.50;;;22.10;;
73107;SDS011;61559;50.476;15.588;2024-03-02T04:36:59;45.10;;;21.30;;
73107;SDS011;61559;50.476;15.588;2024-03-02T04:39:30;43.30;;;20.00;;
73107;SDS011;61559;50.476;15.588;2024-03-02T04:42:03;49.40;;;21.10;;
73107;SDS011;61559;50.476;15.588;2024-03-02T04:44:35;48.00;;;21.60;;
73107;SDS011;61559;50.476;15.588;2024-03-02T04:47:06;48.20;;;21.70;;
73107;SDS011;61559;50.476;15.588;2024-03-02T04:52:07;42.50;;;18.40;;
73107;SDS011;61559;50.476;15.588;2024-03-02T04:54:38;44.80;;;20.40;;
73107;SDS011;61559;50.476;15.588;2024-03-02T04:57:23;43.80;;;20.60;;
73107;SDS011;61559;50.476;15.588;2024-03-02T04:59:55;44.00;;;21.10;;
73107;SDS011;61559;50.476;15.588;2024-03-02T05:02:26;45.20;;;18.70;;
73107;SDS011;61559;50.476;15.588;2024-03-02T05:04:57;40.90;;;19.00;;
73107;SDS011;61559;50.476;15.588;2024-03-02T05:07:30;43.20;;;19.60;;
73107;SDS011;61559;50.476;15.588;2024-03-02T05:10:02;45.20;;;19.70;;
73107;SDS011;61559;50.476;15.588;2024-03-02T05:12:33;42.60;;;20.40;;
73107;SDS011;61559;50.476;15.588;2024-03-02T05:15:25;42.40;;;19.00;;
73107;SDS011;61559;50.476;15.588;2024-03-02T05:17:56;42.10;;;19.50;;
73107;SDS011;61559;50.476;15.588;2024-03-02T05:20:30;46.00;;;20.90;;
73107;SDS011;61559;50.476;15.588;2024-03-02T05:23:01;40.90;;;19.70;;
73107;SDS011;61559;50.476;15.588;2024-03-02T05:25:33;43.10;;;20.00;;
73107;SDS011;61559;50.476;15.588;2024-03-02T05:28:05;39.80;;;19.60;;
73107;SDS011;61559;50.476;15.588;2024-03-02T05:30:36;44.40;;;20.20;;
73107;SDS011;61559;50.476;15.588;2024-03-02T05:38:06;39.50;;;17.30;;
73107;SDS011;61559;50.476;15.588;2024-03-02T05:43:06;41.00;;;18.40;;
73107;SDS011;61559;50.476;15.588;2024-03-02T05:48:08;48.60;;;18.80;;
73107;SDS011;61559;50.476;15.588;2024-03-02T05:50:39;38.80;;;16.70;;
73107;SDS011;61559;50.476;15.588;2024-03-02T05:53:11;39.80;;;18.80;;
73107;SDS011;61559;50.476;15.588;2024-03-02T05:55:43;40.10;;;18.10;;
73107;SDS011;61559;50.476;15.588;2024-03-02T05:58:15;39.30;;;18.30;;
73107;SDS011;61559;50.476;15.588;2024-03-02T06:00:55;45.00;;;19.70;;
73107;SDS011;61559;50.476;15.588;2024-03-02T06:03:27;44.40;;;20.60;;
73107;SDS011;61559;50.476;15.588;2024-03-02T06:05:59;40.60;;;18.40;;
73107;SDS011;61559;50.476;15.588;2024-03-02T06:08:30;39.30;;;19.00;;
73107;SDS011;61559;50.476;15.588;2024-03-02T06:11:02;38.90;;;18.10;;
73107;SDS011;61559;50.476;15.588;2024-03-02T06:13:33;41.30;;;18.50;;
73107;SDS011;61559;50.476;15.588;2024-03-02T06:16:05;41.40;;;18.80;;
73107;SDS011;61559;50.476;15.588;2024-03-02T06:18:37;40.20;;;19.90;;
73107;SDS011;61559;50.476;15.588;2024-03-02T06:21:09;39.80;;;17.90;;
73107;SDS011;61559;50.476;15.588;2024-03-02T06:23:40;41.50;;;19.40;;
73107;SDS011;61559;50.476;15.588;2024-03-02T06:28:40;36.00;;;16.60;;
73107;SDS011;61559;50.476;15.588;2024-03-02T06:31:12;36.60;;;17.80;;
73107;SDS011;61559;50.476;15.588;2024-03-02T06:33:43;42.00;;;18.50;;
73107;SDS011;61559;50.476;15.588;2024-03-02T06:36:14;40.90;;;17.90;;
73107;SDS011;61559;50.476;15.588;2024-03-02T06:41:15;36.20;;;15.90;;
73107;SDS011;61559;50.476;15.588;2024-03-02T06:43:46;41.00;;;18.90;;
73107;SDS011;61559;50.476;15.588;2024-03-02T06:46:17;41.70;;;18.50;;
73107;SDS011;61559;50.476;15.588;2024-03-02T06:48:48;45.30;;;19.50;;
73107;SDS011;61559;50.476;15.588;2024-03-02T06:51:20;40.50;;;18.60;;
73107;SDS011;61559;50.476;15.588;2024-03-02T06:53:51;42.40;;;19.10;;
73107;SDS011;61559;50.476;15.588;2024-03-02T06:58:52;35.20;;;16.30;;
73107;SDS011;61559;50.476;15.588;2024-03-02T07:01:23;33.30;;;17.50;;
73107;SDS011;61559;50.476;15.588;2024-03-02T07:03:56;38.20;;;16.90;;
73107;SDS011;61559;50.476;15.588;2024-03-02T07:06:27;37.40;;;16.90;;
73107;SDS011;61559;50.476;15.588;2024-03-02T07:08:59;31.90;;;16.30;;
73107;SDS011;61559;50.476;15.588;2024-03-02T07:11:30;37.20;;;17.90;;
73107;SDS011;61559;50.476;15.588;2024-03-02T07:14:04;41.10;;;18.90;;
73107;SDS011;61559;50.476;15.588;2024-03-02T07:19:08;41.20;;;17.10;;
73107;SDS011;61559;50.476;15.588;2024-03-02T07:21:39;35.00;;;17.10;;
73107;SDS011;61559;50.476;15.588;2024-03-02T07:24:10;37.30;;;17.90;;
73107;SDS011;61559;50.476;15.588;2024-03-02T07:26:43;44.70;;;19.40;;
73107;SDS011;61559;50.476;15.588;2024-03-02T07:29:23;41.90;;;19.60;;
73107;SDS011;61559;50.476;15.588;2024-03-02T07:31:54;41.30;;;20.80;;
73107;SDS011;61559;50.476;15.588;2024-03-02T07:34:26;36.90;;;19.20;;
73107;SDS011;61559;50.476;15.588;2024-03-02T07:36:57;40.10;;;19.90;;
73107;SDS011;61559;50.476;15.588;2024-03-02T07:39:28;38.70;;;19.50;;
73107;SDS011;61559;50.476;15.588;2024-03-02T07:41:59;41.40;;;19.00;;
73107;SDS011;61559;50.476;15.588;2024-03-02T07:44:31;42.00;;;20.20;;
73107;SDS011;61559;50.476;15.588;2024-03-02T07:47:03;39.30;;;18.30;;
73107;SDS011;61559;50.476;15.588;2024-03-02T07:49:34;38.80;;;19.30;;
73107;SDS011;61559;50.476;15.588;2024-03-02T07:52:05;38.10;;;17.70;;
73107;SDS011;61559;50.476;15.588;2024-03-02T07:54:37;39.90;;;21.70;;
73107;SDS011;61559;50.476;15.588;2024-03-02T07:57:08;37.30;;;18.90;;
73107;SDS011;61559;50.476;15.588;2024-03-02T07:59:39;36.00;;;17.70;;
73107;SDS011;61559;50.476;15.588;2024-03-02T08:02:11;38.00;;;18.10;;
73107;SDS011;61559;50.476;15.588;2024-03-02T08:04:43;36.40;;;17.00;;
73107;SDS011;61559;50.476;15.588;2024-03-02T08:07:15;37.20;;;16.60;;
73107;SDS011;61559;50.476;15.588;2024-03-02T08:09:46;34.00;;;16.60;;
73107;SDS011;61559;50.476;15.588;2024-03-02T08:12:17;37.60;;;15.90;;
73107;SDS011;61559;50.476;15.588;2024-03-02T08:14:51;34.30;;;17.20;;
73107;SDS011;61559;50.476;15.588;2024-03-02T08:17:22;36.40;;;17.50;;
73107;SDS011;61559;50.476;15.588;2024-03-02T08:19:54;29.80;;;15.40;;
73107;SDS011;61559;50.476;15.588;2024-03-02T08:22:25;32.90;;;15.90;;
73107;SDS011;61559;50.476;15.588;2024-03-02T08:24:57;35.20;;;16.70;;
73107;SDS011;61559;50.476;15.588;2024-03-02T08:27:30;32.30;;;15.20;;
73107;SDS011;61559;50.476;15.588;2024-03-02T08:30:01;34.30;;;15.80;;
73107;SDS011;61559;50.476;15.588;2024-03-02T08:32:35;33.70;;;15.40;;
73107;SDS011;61559;50.476;15.588;2024-03-02T08:35:07;30.40;;;14.90;;
73107;SDS011;61559;50.476;15.588;2024-03-02T08:37:40;32.20;;;15.60;;
73107;SDS011;61559;50.476;15.588;2024-03-02T08:40:12;29.30;;;14.70;;
73107;SDS011;61559;50.476;15.588;2024-03-02T08:42:46;34.30;;;16.20;;
73107;SDS011;61559;50.476;15.588;2024-03-02T08:45:18;28.80;;;13.90;;
73107;SDS011;61559;50.476;15.588;2024-03-02T08:47:49;29.90;;;14.20;;
73107;SDS011;61559;50.476;15.588;2024-03-02T08:50:21;28.70;;;14.90;;
73107;SDS011;61559;50.476;15.588;2024-03-02T08:52:52;29.90;;;15.00;;
73107;SDS011;61559;50.476;15.588;2024-03-02T08:55:23;31.20;;;14.70;;
73107;SDS011;61559;50.476;15.588;2024-03-02T08:57:55;27.80;;;14.40;;
73107;SDS011;61559;50.476;15.588;2024-03-02T09:00:26;29.50;;;13.80;;
73107;SDS011;61559;50.476;15.588;2024-03-02T09:02:57;28.90;;;13.90;;
73107;SDS011;61559;50.476;15.588;2024-03-02T09:05:29;31.30;;;14.90;;
73107;SDS011;61559;50.476;15.588;2024-03-02T09:08:00;29.70;;;13.90;;
73107;SDS011;61559;50.476;15.588;2024-03-02T09:10:32;32.00;;;14.70;;
73107;SDS011;61559;50.476;15.588;2024-03-02T09:13:03;30.20;;;15.40;;
73107;SDS011;61559;50.476;15.588;2024-03-02T09:15:35;42.90;;;17.50;;
73107;SDS011;61559;50.476;15.588;2024-03-02T09:18:08;27.00;;;13.90;;
73107;SDS011;61559;50.476;15.588;2024-03-02T09:20:40;27.90;;;13.90;;
73107;SDS011;61559;50.476;15.588;2024-03-02T09:23:12;30.30;;;13.60;;
73107;SDS011;61559;50.476;15.588;2024-03-02T09:25:43;34.70;;;15.90;;
73107;SDS011;61559;50.476;15.588;2024-03-02T09:28:14;32.70;;;16.40;;
73107;SDS011;61559;50.476;15.588;2024-03-02T09:30:46;30.40;;;14.70;;
73107;SDS011;61559;50.476;15.588;2024-03-02T09:33:17;29.70;;;13.70;;
73107;SDS011;61559;50.476;15.588;2024-03-02T09:35:48;29.80;;;15.40;;
73107;SDS011;61559;50.476;15.588;2024-03-02T09:38:22;30.80;;;14.90;;
73107;SDS011;61559;50.476;15.588;2024-03-02T09:40:53;29.30;;;14.80;;
73107;SDS011;61559;50.476;15.588;2024-03-02T09:43:24;29.00;;;14.70;;
73107;SDS011;61559;50.476;15.588;2024-03-02T09:45:56;28.70;;;14.20;;
73107;SDS011;61559;50.476;15.588;2024-03-02T09:48:28;33.60;;;15.40;;
73107;SDS011;61559;50.476;15.588;2024-03-02T09:51:00;34.50;;;17.20;;
73107;SDS011;61559;50.476;15.588;2024-03-02T09:53:32;35.80;;;16.30;;
73107;SDS011;61559;50.476;15.588;2024-03-02T09:56:04;38.40;;;17.50;;
73107;SDS011;61559;50.476;15.588;2024-03-02T09:58:36;32.20;;;15.80;;
73107;SDS011;61559;50.476;15.588;2024-03-02T10:01:07;37.30;;;17.40;;
73107;SDS011;61559;50.476;15.588;2024-03-02T10:03:39;42.20;;;21.60;;
73107;SDS011;61559;50.476;15.588;2024-03-02T10:06:20;33.50;;;15.70;;
73107;SDS011;61559;50.476;15.588;2024-03-02T10:08:52;32.80;;;16.20;;
73107;SDS011;61559;50.476;15.588;2024-03-02T10:11:28;31.10;;;15.40;;
73107;SDS011;61559;50.476;15.588;2024-03-02T10:14:08;31.10;;;15.50;;
73107;SDS011;61559;50.476;15.588;2024-03-02T10:16:41;30.60;;;14.90;;
73107;SDS011;61559;50.476;15.588;2024-03-02T10:19:16;31.90;;;16.60;;
73107;SDS011;61559;50.476;15.588;2024-03-02T10:21:49;32.90;;;15.80;;
73107;SDS011;61559;50.476;15.588;2024-03-02T10:24:22;34.60;;;16.00;;
73107;SDS011;61559;50.476;15.588;2024-03-02T10:26:53;48.80;;;22.90;;
73107;SDS011;61559;50.476;15.588;2024-03-02T10:29:24;37.60;;;19.20;;
73107;SDS011;61559;50.476;15.588;2024-03-02T10:31:58;36.80;;;17.40;;
73107;SDS011;61559;50.476;15.588;2024-03-02T10:34:34;32.50;;;16.70;;
73107;SDS011;61559;50.476;15.588;2024-03-02T10:37:07;32.20;;;16.10;;
73107;SDS011;61559;50.476;15.588;2024-03-02T10:39:39;34.30;;;17.80;;
73107;SDS011;61559;50.476;15.588;2024-03-02T10:42:11;50.00;;;23.70;;
73107;SDS011;61559;50.476;15.588;2024-03-02T10:44:43;42.40;;;20.50;;
73107;SDS011;61559;50.476;15.588;2024-03-02T10:47:15;63.20;;;27.70;;
73107;SDS011;61559;50.476;15.588;2024-03-02T10:49:49;124.90;;;63.80;;
73107;SDS011;61559;50.476;15.588;2024-03-02T10:52:23;39.20;;;19.00;;
73107;SDS011;61559;50.476;15.588;2024-03-02T10:54:54;30.00;;;15.10;;
73107;SDS011;61559;50.476;15.588;2024-03-02T10:57:25;28.40;;;14.90;;
73107;SDS011;61559;50.476;15.588;2024-03-02T11:00:03;32.90;;;17.00;;
73107;SDS011;61559;50.476;15.588;2024-03-02T11:02:46;65.10;;;32.90;;
73107;SDS011;61559;50.476;15.588;2024-03-02T11:05:26;43.00;;;20.30;;
73107;SDS011;61559;50.476;15.588;2024-03-02T11:08:00;60.90;;;26.50;;
73107;SDS011;61559;50.476;15.588;2024-03-02T11:10:35;37.20;;;19.50;;
73107;SDS011;61559;50.476;15.588;2024-03-02T11:13:15;63.50;;;30.50;;
73107;SDS011;61559;50.476;15.588;2024-03-02T11:15:53;63.80;;;33.00;;
73107;SDS011;61559;50.476;15.588;2024-03-02T11:18:28;32.60;;;16.40;;
73107;SDS011;61559;50.476;15.588;2024-03-02T11:21:01;31.70;;;16.80;;
73107;SDS011;61559;50.476;15.588;2024-03-02T11:23:34;34.10;;;17.40;;
73107;SDS011;61559;50.476;15.588;2024-03-02T11:26:18;28.90;;;16.50;;
73107;SDS011;61559;50.476;15.588;2024-03-02T11:28:51;29.00;;;15.30;;
73107;SDS011;61559;50.476;15.588;2024-03-02T11:31:22;176.40;;;69.60;;
73107;SDS011;61559;50.476;15.588;2024-03-02T11:34:20;189.20;;;76.30;;
73107;SDS011;61559;50.476;15.588;2024-03-02T11:37:00;83.70;;;34.90;;
73107;SDS011;61559;50.476;15.588;2024-03-02T11:39:32;92.40;;;41.40;;
73107;SDS011;61559;50.476;15.588;2024-03-02T11:42:07;35.90;;;18.00;;
73107;SDS011;61559;50.476;15.588;2024-03-02T11:44:38;27.20;;;16.30;;
73107;SDS011;61559;50.476;15.588;2024-03-02T11:47:14;33.00;;;16.60;;
73107;SDS011;61559;50.476;15.588;2024-03-02T11:49:46;28.30;;;15.00;;
73107;SDS011;61559;50.476;15.588;2024-03-02T11:52:20;27.30;;;15.50;;
73107;SDS011;61559;50.476;15.588;2024-03-02T11:54:53;39.10;;;19.10;;
73107;SDS011;61559;50.476;15.588;2024-03-02T11:57:26;139.50;;;74.40;;
73107;SDS011;61559;50.476;15.588;2024-03-02T11:59:59;34.50;;;18.20;;
73107;SDS011;61559;50.476;15.588;2024-03-02T12:02:32;28.70;;;15.80;;
73107;SDS011;61559;50.476;15.588;2024-03-02T12:05:04;29.70;;;15.30;;
73107;SDS011;61559;50.476;15.588;2024-03-02T12:07:37;31.20;;;16.60;;
73107;SDS011;61559;50.476;15.588;2024-03-02T12:10:08;28.40;;;14.20;;
73107;SDS011;61559;50.476;15.588;2024-03-02T12:12:39;41.50;;;25.00;;
73107;SDS011;61559;50.476;15.588;2024-03-02T12:15:11;28.80;;;15.70;;
73107;SDS011;61559;50.476;15.588;2024-03-02T12:17:42;37.50;;;19.60;;
73107;SDS011;61559;50.476;15.588;2024-03-02T12:20:13;36.60;;;19.20;;
73107;SDS011;61559;50.476;15.588;2024-03-02T12:22:45;28.40;;;15.90;;
73107;SDS011;61559;50.476;15.588;2024-03-02T12:25:16;30.00;;;16.90;;
73107;SDS011;61559;50.476;15.588;2024-03-02T12:27:47;31.00;;;14.70;;
73107;SDS011;61559;50.476;15.588;2024-03-02T12:30:21;27.40;;;15.30;;
73107;SDS011;61559;50.476;15.588;2024-03-02T12:32:53;27.40;;;16.30;;
73107;SDS011;61559;50.476;15.588;2024-03-02T12:35:25;27.60;;;14.30;;
73107;SDS011;61559;50.476;15.588;2024-03-02T12:37:56;25.60;;;15.50;;
73107;SDS011;61559;50.476;15.588;2024-03-02T12:40:28;26.80;;;15.10;;
73107;SDS011;61559;50.476;15.588;2024-03-02T12:43:01;26.60;;;15.10;;
73107;SDS011;61559;50.476;15.588;2024-03-02T12:45:32;26.30;;;13.90;;
73107;SDS011;61559;50.476;15.588;2024-03-02T12:48:05;23.50;;;13.80;;
73107;SDS011;61559;50.476;15.588;2024-03-02T12:50:36;29.70;;;15.00;;
73107;SDS011;61559;50.476;15.588;2024-03-02T12:53:13;26.00;;;13.90;;
73107;SDS011;61559;50.476;15.588;2024-03-02T12:55:45;27.80;;;15.20;;
73107;SDS011;61559;50.476;15.588;2024-03-02T12:58:18;25.20;;;13.10;;
73107;SDS011;61559;50.476;15.588;2024-03-02T13:00:50;23.30;;;13.70;;
73107;SDS011;61559;50.476;15.588;2024-03-02T13:03:36;20.60;;;11.40;;
73107;SDS011;61559;50.476;15.588;2024-03-02T13:06:07;25.40;;;12.50;;
73107;SDS011;61559;50.476;15.588;2024-03-02T13:08:39;20.70;;;11.90;;
73107;SDS011;61559;50.476;15.588;2024-03-02T13:11:10;24.50;;;13.00;;
73107;SDS011;61559;50.476;15.588;2024-03-02T13:13:41;19.40;;;11.70;;
73107;SDS011;61559;50.476;15.588;2024-03-02T13:16:12;25.80;;;13.40;;
73107;SDS011;61559;50.476;15.588;2024-03-02T13:18:44;22.60;;;11.60;;
73107;SDS011;61559;50.476;15.588;2024-03-02T13:21:15;20.60;;;12.40;;
73107;SDS011;61559;50.476;15.588;2024-03-02T13:23:47;24.00;;;12.70;;
73107;SDS011;61559;50.476;15.588;2024-03-02T13:26:18;23.20;;;11.80;;
73107;SDS011;61559;50.476;15.588;2024-03-02T13:28:49;22.50;;;13.20;;
73107;SDS011;61559;50.476;15.588;2024-03-02T13:31:20;20.80;;;11.80;;
73107;SDS011;61559;50.476;15.588;2024-03-02T13:33:51;21.50;;;11.60;;
73107;SDS011;61559;50.476;15.588;2024-03-02T13:36:22;17.90;;;11.00;;
73107;SDS011;61559;50.476;15.588;2024-03-02T13:38:53;20.20;;;11.30;;
73107;SDS011;61559;50.476;15.588;2024-03-02T13:41:26;20.10;;;11.00;;
73107;SDS011;61559;50.476;15.588;2024-03-02T13:43:57;22.10;;;11.50;;
73107;SDS011;61559;50.476;15.588;2024-03-02T13:46:29;21.80;;;11.30;;
73107;SDS011;61559;50.476;15.588;2024-03-02T13:49:00;18.80;;;10.70;;
73107;SDS011;61559;50.476;15.588;2024-03-02T13:51:32;19.80;;;13.20;;
73107;SDS011;61559;50.476;15.588;2024-03-02T13:54:03;19.10;;;11.20;;
73107;SDS011;61559;50.476;15.588;2024-03-02T13:56:34;19.20;;;10.70;;
73107;SDS011;61559;50.476;15.588;2024-03-02T13:59:07;19.60;;;10.70;;
73107;SDS011;61559;50.476;15.588;2024-03-02T14:01:38;18.80;;;10.60;;
73107;SDS011;61559;50.476;15.588;2024-03-02T14:04:09;17.50;;;10.20;;
73107;SDS011;61559;50.476;15.588;2024-03-02T14:06:40;22.20;;;10.70;;
73107;SDS011;61559;50.476;15.588;2024-03-02T14:09:14;17.80;;;10.20;;
73107;SDS011;61559;50.476;15.588;2024-03-02T14:11:51;16.50;;;9.70;;
73107;SDS011;61559;50.476;15.588;2024-03-02T14:14:22;17.20;;;10.20;;
73107;SDS011;61559;50.476;15.588;2024-03-02T14:16:53;18.40;;;10.70;;
73107;SDS011;61559;50.476;15.588;2024-03-02T14:19:28;21.60;;;11.70;;
73107;SDS011;61559;50.476;15.588;2024-03-02T14:22:00;21.40;;;10.50;;
73107;SDS011;61559;50.476;15.588;2024-03-02T14:24:31;20.70;;;11.50;;
73107;SDS011;61559;50.476;15.588;2024-03-02T14:27:02;19.30;;;11.30;;
73107;SDS011;61559;50.476;15.588;2024-03-02T14:29:52;18.40;;;10.10;;
73107;SDS011;61559;50.476;15.588;2024-03-02T14:32:23;19.30;;;10.80;;
73107;SDS011;61559;50.476;15.588;2024-03-02T14:34:54;19.40;;;10.60;;
73107;SDS011;61559;50.476;15.588;2024-03-02T14:37:25;19.30;;;10.90;;
73107;SDS011;61559;50.476;15.588;2024-03-02T14:39:56;15.20;;;9.70;;
73107;SDS011;61559;50.476;15.588;2024-03-02T14:42:28;17.70;;;9.80;;
73107;SDS011;61559;50.476;15.588;2024-03-02T14:45:00;21.00;;;9.70;;
73107;SDS011;61559;50.476;15.588;2024-03-02T14:47:32;17.40;;;10.10;;
73107;SDS011;61559;50.476;15.588;2024-03-02T14:50:04;17.60;;;10.10;;
73107;SDS011;61559;50.476;15.588;2024-03-02T14:52:37;17.10;;;10.50;;
73107;SDS011;61559;50.476;15.588;2024-03-02T14:55:13;17.70;;;10.60;;
73107;SDS011;61559;50.476;15.588;2024-03-02T14:57:44;14.70;;;9.90;;
73107;SDS011;61559;50.476;15.588;2024-03-02T15:00:16;16.70;;;9.60;;
73107;SDS011;61559;50.476;15.588;2024-03-02T15:02:48;16.70;;;10.20;;
73107;SDS011;61559;50.476;15.588;2024-03-02T15:05:19;13.50;;;9.40;;
73107;SDS011;61559;50.476;15.588;2024-03-02T15:07:50;16.40;;;10.50;;
73107;SDS011;61559;50.476;15.588;2024-03-02T15:10:22;17.10;;;9.80;;
73107;SDS011;61559;50.476;15.588;2024-03-02T15:12:53;17.00;;;10.20;;
73107;SDS011;61559;50.476;15.588;2024-03-02T15:15:24;17.80;;;10.50;;